createdAt,value
2023-05-24T00:04:25.636Z,26.36
2023-05-24T00:14:31.042Z,26.42
2023-05-24T00:24:36.854Z,26.37
2023-05-24T00:34:42.288Z,26.34
2023-05-24T00:44:48.016Z,26.36
2023-05-24T00:54:53.817Z,26.36
2023-05-24T01:04:59.353Z,26.35
2023-05-24T01:15:04.473Z,26.28
2023-05-24T01:25:10.800Z,26.28
2023-05-24T01:35:16.165Z,26.30
2023-05-24T01:45:21.896Z,26.28
2023-05-24T01:55:27.307Z,26.22
2023-05-24T02:05:32.786Z,26.26
2023-05-24T02:15:38.522Z,26.27
2023-05-24T02:25:43.744Z,26.26
2023-05-24T02:35:49.477Z,26.19
2023-05-24T02:45:54.671Z,26.19
2023-05-24T02:55:59.772Z,26.22
2023-05-24T03:06:05.200Z,26.19
2023-05-24T03:16:11.103Z,26.21
2023-05-24T03:26:16.839Z,26.15
2023-05-24T03:36:22.006Z,26.16
2023-05-24T03:46:28.040Z,26.13
2023-05-24T03:56:33.563Z,26.11
2023-05-24T04:06:39.145Z,26.12
2023-05-24T04:16:44.200Z,26.05
2023-05-24T04:26:49.527Z,26.08
2023-05-24T04:36:55.320Z,26.09
2023-05-24T04:47:00.796Z,26.06
2023-05-24T04:57:06.357Z,26.04
2023-05-24T05:07:11.631Z,26.06
2023-05-24T05:17:17.122Z,26.03
2023-05-24T05:27:23.022Z,26.02
2023-05-24T05:37:28.422Z,25.98
2023-05-24T05:47:33.844Z,25.96
2023-05-24T05:57:39.205Z,25.95
2023-05-24T06:07:44.675Z,25.92
2023-05-24T06:17:50.326Z,25.96
2023-05-24T06:27:55.954Z,25.95
2023-05-24T06:38:01.417Z,25.92
2023-05-24T06:48:07.518Z,25.93
2023-05-24T06:58:13.561Z,25.92
2023-05-24T07:08:18.899Z,25.86
2023-05-24T07:18:25.365Z,25.87
2023-05-24T07:28:31.349Z,25.86
2023-05-24T07:38:37.277Z,25.83
2023-05-24T07:48:42.901Z,25.96
2023-05-24T07:58:48.330Z,25.97
2023-05-24T08:08:54.276Z,26.03
2023-05-24T08:18:59.707Z,25.98
2023-05-24T08:29:05.472Z,25.86
2023-05-24T08:39:11.233Z,25.81
2023-05-24T08:49:16.593Z,25.88
2023-05-24T08:59:22.063Z,25.82
2023-05-24T09:09:27.573Z,25.88
2023-05-24T09:19:33.105Z,25.78
2023-05-24T09:29:38.611Z,25.82
2023-05-24T09:39:43.972Z,25.75
2023-05-24T09:49:49.429Z,25.77
2023-05-24T09:59:54.981Z,25.63
2023-05-24T10:10:00.706Z,25.68
2023-05-24T10:20:06.529Z,25.77
2023-05-24T10:30:13.836Z,25.68
2023-05-24T10:40:19.682Z,25.58
2023-05-24T10:50:25.179Z,25.66
2023-05-24T11:10:39.424Z,25.63
2023-05-24T11:20:45.041Z,25.65
2023-05-24T11:30:51.079Z,25.66
2023-05-24T11:40:56.976Z,25.59
2023-05-24T11:51:02.481Z,25.60
2023-05-24T12:01:07.598Z,25.57
2023-05-24T12:11:13.089Z,25.59
2023-05-24T12:21:18.577Z,25.57
2023-05-24T12:31:24.537Z,25.56
2023-05-24T12:41:30.075Z,25.55
2023-05-24T12:51:35.497Z,25.59
2023-05-24T13:01:41.267Z,25.60
2023-05-24T13:11:46.937Z,25.65
2023-05-24T13:21:52.741Z,25.67
2023-05-24T13:31:58.430Z,25.67
2023-05-24T13:42:03.999Z,25.63
2023-05-24T13:52:09.991Z,25.70
2023-05-24T14:02:15.674Z,25.70
2023-05-24T14:12:21.470Z,25.71
2023-05-24T14:22:26.726Z,25.68
2023-05-24T14:32:32.197Z,25.68
2023-05-24T14:42:37.675Z,25.70
2023-05-24T14:52:42.947Z,25.69
2023-05-24T15:02:48.413Z,25.69
2023-05-24T15:12:53.827Z,25.71
2023-05-24T15:22:59.538Z,25.71
2023-05-24T15:33:05.149Z,25.73
2023-05-24T15:43:10.854Z,25.75
2023-05-24T15:53:16.404Z,25.75
2023-05-24T16:03:22.345Z,25.78
2023-05-24T16:13:27.736Z,25.76
2023-05-24T16:23:33.239Z,25.73
2023-05-24T16:33:38.948Z,25.72
2023-05-24T16:43:45.429Z,25.69
2023-05-24T16:53:50.614Z,25.74
2023-05-24T17:03:56.194Z,25.66
2023-05-24T17:14:01.467Z,25.65
2023-05-24T17:24:07.078Z,25.66
2023-05-24T17:34:12.382Z,25.67
2023-05-24T17:44:18.273Z,25.67
2023-05-24T17:54:23.797Z,25.59
2023-05-24T18:04:29.237Z,25.59
2023-05-24T18:14:34.766Z,25.64
2023-05-24T18:24:40.185Z,25.69
2023-05-24T18:34:45.569Z,25.74
2023-05-24T18:44:50.810Z,25.76
2023-05-24T18:54:56.254Z,25.87
2023-05-24T19:05:02.102Z,25.88
2023-05-24T19:15:07.696Z,25.86
2023-05-24T19:25:13.121Z,25.84
2023-05-24T19:35:18.674Z,25.91
2023-05-24T19:45:23.800Z,25.94
2023-05-24T19:55:29.606Z,25.97
2023-05-24T20:05:35.889Z,26.02
2023-05-24T20:15:41.562Z,26.02
2023-05-24T20:25:47.071Z,26.03
2023-05-24T20:35:52.488Z,26.01
2023-05-24T20:45:58.319Z,26.06
2023-05-24T20:56:03.628Z,26.05
2023-05-24T21:06:08.939Z,26.10
2023-05-24T21:16:13.687Z,26.11
2023-05-24T21:26:19.339Z,26.11
2023-05-24T21:36:24.196Z,26.08
2023-05-24T21:46:29.641Z,26.09
2023-05-24T21:56:35.235Z,26.10
2023-05-24T22:06:40.984Z,26.13
2023-05-24T22:16:47.652Z,26.21
2023-05-24T22:26:53.204Z,26.12
2023-05-24T22:36:58.870Z,26.07
2023-05-24T22:47:04.368Z,25.96
2023-05-24T22:57:09.486Z,26.04
2023-05-24T23:07:14.571Z,25.93
2023-05-24T23:17:19.996Z,25.92
2023-05-24T23:27:25.409Z,25.85
2023-05-24T23:37:30.802Z,25.95
2023-05-24T23:47:36.599Z,25.95
2023-05-24T23:57:42.051Z,25.91
